Map

Track Data

SID SEASON NUMBER BASIN SUBBASIN NAME ISO_TIME NATURE LAT LON WMO_WIND WMO_PRES WMO_AGENCY TRACK_TYPE DIST2LAND LANDFALL IFLAG USA_AGENCY USA_ATCF_ID USA_LAT USA_LON USA_RECORD USA_STATUS USA_WIND USA_PRES USA_SSHS USA_R34_NE USA_R34_SE USA_R34_SW USA_R34_NW USA_R50_NE USA_R50_SE USA_R50_SW USA_R50_NW USA_R64_NE USA_R64_SE USA_R64_SW USA_R64_NW USA_POCI USA_ROCI USA_RMW USA_EYE TOKYO_LAT TOKYO_LON TOKYO_GRADE TOKYO_WIND TOKYO_PRES TOKYO_R50_DIR TOKYO_R50_LONG TOKYO_R50_SHORT TOKYO_R30_DIR TOKYO_R30_LONG TOKYO_R30_SHORT TOKYO_LAND CMA_LAT CMA_LON CMA_CAT CMA_WIND CMA_PRES HKO_LAT HKO_LON HKO_CAT HKO_WIND HKO_PRES NEWDELHI_LAT NEWDELHI_LON NEWDELHI_GRADE NEWDELHI_WIND NEWDELHI_PRES NEWDELHI_CI NEWDELHI_DP NEWDELHI_POCI REUNION_LAT REUNION_LON REUNION_TYPE REUNION_WIND REUNION_PRES REUNION_TNUM REUNION_CI REUNION_RMW REUNION_R34_NE REUNION_R34_SE REUNION_R34_SW REUNION_R34_NW REUNION_R50_NE REUNION_R50_SE REUNION_R50_SW REUNION_R50_NW REUNION_R64_NE REUNION_R64_SE REUNION_R64_SW REUNION_R64_NW BOM_LAT BOM_LON BOM_TYPE BOM_WIND BOM_PRES BOM_TNUM BOM_CI BOM_RMW BOM_R34_NE BOM_R34_SE BOM_R34_SW BOM_R34_NW BOM_R50_NE BOM_R50_SE BOM_R50_SW BOM_R50_NW BOM_R64_NE BOM_R64_SE BOM_R64_SW BOM_R64_NW BOM_ROCI BOM_POCI BOM_EYE BOM_POS_METHOD BOM_PRES_METHOD NADI_LAT NADI_LON NADI_CAT NADI_WIND NADI_PRES WELLINGTON_LAT WELLINGTON_LON WELLINGTON_WIND WELLINGTON_PRES DS824_LAT DS824_LON DS824_STAGE DS824_WIND DS824_PRES TD9636_LAT TD9636_LON TD9636_STAGE TD9636_WIND TD9636_PRES TD9635_LAT TD9635_LON TD9635_WIND TD9635_PRES TD9635_ROCI NEUMANN_LAT NEUMANN_LON NEUMANN_CLASS NEUMANN_WIND NEUMANN_PRES MLC_LAT MLC_LON MLC_CLASS MLC_WIND MLC_PRES USA_GUST BOM_GUST BOM_GUST_PER REUNION_GUST REUNION_GUST_PER USA_SEAHGT USA_SEARAD_NE USA_SEARAD_SE USA_SEARAD_SW USA_SEARAD_NW STORM_SPEED STORM_DIR
2020302N17140 2020 39 WP MM GONI 2020-10-28 00:00:00 NR 16.6000 140.100 PROVISIONAL 1647 1617 O_____________ tcvitals WP222020 16.6000 140.100 25 1007 -1 1010 150 40 6 270
2020302N17140 2020 39 WP MM GONI 2020-10-28 03:00:00 NR 16.6001 139.810 PROVISIONAL 1617 1586 P_____________ WP222020 16.6001 139.810 27 1004 -1 1009 155 35 6 270
2020302N17140 2020 39 WP MM GONI 2020-10-28 06:00:00 NR 16.6000 139.500 PROVISIONAL 1586 1555 O_____________ tcvitals WP222020 16.6000 139.500 29 1002 -1 1009 160 30 6 270
2020302N17140 2020 39 WP MM GONI 2020-10-28 09:00:00 NR 16.5998 139.145 PROVISIONAL 1545 1504 P_____________ WP222020 16.5998 139.145 32 1001 -1 1009 132 30 8 270
2020302N17140 2020 39 WP MM GONI 2020-10-28 12:00:00 NR 16.6000 138.700 PROVISIONAL 1504 1443 O_____________ tcvitals WP222020 16.6000 138.700 35 1000 0 30 20 15 35 1009 105 30 10 270
2020302N17140 2020 39 WP MM GONI 2020-10-28 15:00:00 NR 16.6077 138.108 PROVISIONAL 1443 1383 P_____________ WP222020 16.6077 138.108 35 1002 0 37 20 17 42 1009 127 30 12 270
2020302N17140 2020 39 WP MM GONI 2020-10-28 18:00:00 NR 16.6000 137.500 PROVISIONAL 1383 1329 O_____________ tcvitals WP222020 16.6000 137.500 35 1005 0 45 20 20 50 1009 150 30 10 266
2020302N17140 2020 39 WP MM GONI 2020-10-28 21:00:00 NR 16.5273 137.020 PROVISIONAL 1329 1289 P_____________ WP222020 16.5273 137.020 44 1000 0 52 32 32 55 1009 150 25 9 263
2020302N17140 2020 39 WP MM GONI 2020-10-29 00:00:00 NR 16.5000 136.600 PROVISIONAL 1289 1253 O_____________ tcvitals WP222020 16.5000 136.600 54 995 0 60 45 45 60 1009 150 20 8 279
2020302N17140 2020 39 WP MM GONI 2020-10-29 03:00:00 NR 16.6497 136.223 PROVISIONAL 1253 1222 P_____________ WP222020 16.6497 136.223 62 988 0 82 42 67 72 1007 150 20 8 291
2020302N17140 2020 39 WP MM GONI 2020-10-29 06:00:00 NR 16.8000 135.800 PROVISIONAL 1222 1174 O_____________ tcvitals WP222020 16.8000 135.800 70 982 1 105 40 90 85 1006 150 20 10 279
2020302N17140 2020 39 WP MM GONI 2020-10-29 09:00:00 NR 16.8026 135.230 PROVISIONAL 1164 1101 P_____________ WP222020 16.8026 135.230 75 980 1 87 42 65 72 1007 150 15 12 265
2020302N17140 2020 39 WP MM GONI 2020-10-29 12:00:00 NR 16.7000 134.600 PROVISIONAL 1101 1034 O_____________ tcvitals WP222020 16.7000 134.600 80 979 1 70 45 40 60 1008 150 10 13 256
2020302N17140 2020 39 WP MM GONI 2020-10-29 15:00:00 NR 16.4926 133.962 PROVISIONAL 1034 967 P_____________ WP222020 16.4926 133.962 99 961 3 77 50 40 67 1007 145 8 12 251
2020302N17140 2020 39 WP MM GONI 2020-10-29 18:00:00 NR 16.3000 133.400 PROVISIONAL 967 939 O_____________ tcvitals WP222020 16.3000 133.400 119 943 4 85 55 40 75 1006 140 6 9 256
2020302N17140 2020 39 WP MM GONI 2020-10-29 21:00:00 NR 16.2695 133.043 PROVISIONAL 929 901 P_____________ WP222020 16.2695 133.043 121 941 4 85 55 40 75 1006 137 5 7 270
2020302N17140 2020 39 WP MM GONI 2020-10-30 00:00:00 NR 16.3000 132.700 PROVISIONAL 901 855 O_____________ tcvitals WP222020 16.3000 132.700 124 939 4 85 55 40 75 1007 135 5 9 273
2020302N17140 2020 39 WP MM GONI 2020-10-30 03:00:00 NR 16.3153 132.150 PROVISIONAL 855 801 P_____________ WP222020 16.3153 132.150 136 925 4 70 50 37 65 1006 145 5 11 270
2020302N17140 2020 39 WP MM GONI 2020-10-30 06:00:00 NR 16.3000 131.600 PROVISIONAL 801 769 O_____________ tcvitals WP222020 16.3000 131.600 148 911 5 55 45 35 55 1005 155 5 9 264
2020302N17140 2020 39 WP MM GONI 2020-10-30 09:00:00 NR 16.2221 131.243 PROVISIONAL 760 727 P_____________ WP222020 16.2221 131.243 151 908 5 70 55 47 67 1006 157 5 7 253
2020302N17140 2020 39 WP MM GONI 2020-10-30 12:00:00 NR 16.1000 130.900 PROVISIONAL 727 686 O_____________ tcvitals WP222020 16.1000 130.900 154 905 5 85 65 60 80 1007 160 5 8 252
2020302N17140 2020 39 WP MM GONI 2020-10-30 15:00:00 NR 15.9725 130.430 PROVISIONAL 678 622 P_____________ WP222020 15.9725 130.430 154 904 5 67 50 47 67 1005 160 5 10 253
2020302N17140 2020 39 WP MM GONI 2020-10-30 18:00:00 NR 15.8000 129.900 PROVISIONAL 622 567 O_____________ tcvitals WP222020 15.8000 129.900 154 904 5 50 35 35 55 1004 160 5 11 249
2020302N17140 2020 39 WP MM GONI 2020-10-30 21:00:00 NR 15.5724 129.365 PROVISIONAL 567 497 P_____________ WP222020 15.5724 129.365 156 899 5 82 60 67 85 1004 155 5 12 245
2020302N17140 2020 39 WP MM GONI 2020-10-31 00:00:00 NR 15.3000 128.800 PROVISIONAL 497 427 O_____________ tcvitals WP222020 15.3000 128.800 159 895 5 115 85 100 115 1004 150 5 13 243
2020302N17140 2020 39 WP MM GONI 2020-10-31 03:00:00 NR 15.0000 128.200 PROVISIONAL 427 356 P_____________ WP222020 15.0000 128.200 156 897 5 107 77 95 112 1004 147 5 13 243
2020302N17140 2020 39 WP MM GONI 2020-10-31 06:00:00 NR 14.7000 127.600 PROVISIONAL 356 298 O_____________ tcvitals WP222020 14.7000 127.600 154 900 5 100 70 90 110 1004 145 6 12 243
2020302N17140 2020 39 WP MM GONI 2020-10-31 09:00:00 NR 14.4421 127.065 PROVISIONAL 295 229 P_____________ WP222020 14.4421 127.065 154 902 5 95 75 80 110 1004 147 5 12 245
2020302N17140 2020 39 WP MM GONI 2020-10-31 12:00:00 NR 14.2000 126.500 PROVISIONAL 229 161 O_____________ tcvitals WP222020 14.2000 126.500 154 904 5 90 80 70 110 1005 150 5 13 247
2020302N17140 2020 39 WP MM GONI 2020-10-31 15:00:00 NR 13.9274 125.830 PROVISIONAL 151 75 P_____________ WP222020 13.9274 125.830 161 894 5 90 80 70 110 1004 157 5 15 250
2020302N17140 2020 39 WP MM GONI 2020-10-31 18:00:00 NR 13.7000 125.100 PROVISIONAL 75 10 O_____________ tcvitals WP222020 13.7000 125.100 169 884 5 90 80 70 110 1003 165 5 15 256
2020302N17140 2020 39 WP MM GONI 2020-10-31 21:00:00 NR 13.5551 124.328 PROVISIONAL 0 0 P_____________ WP222020 13.5551 124.328 142 915 5 110 90 77 127 1004 172 5 15 262
2020302N17140 2020 39 WP MM GONI 2020-11-01 00:00:00 NR 13.5000 123.600 PROVISIONAL 0 0 O_____________ tcvitals WP222020 13.5000 123.600 115 947 4 130 100 85 145 1006 180 5 13 267
2020302N17140 2020 39 WP MM GONI 2020-11-01 03:00:00 NR 13.4971 123.035 PROVISIONAL 10 0 P_____________ WP222020 13.4971 123.035 94 963 2 128 102 82 140 1005 175 5 11 275
2020302N17140 2020 39 WP MM GONI 2020-11-01 06:00:00 NR 13.6000 122.500 PROVISIONAL 0 0 O_____________ tcvitals WP222020 13.6000 122.500 74 980 1 126 105 80 135 1005 170 5 12 286
2020302N17140 2020 39 WP MM GONI 2020-11-01 09:00:00 NR 13.8122 121.895 PROVISIONAL 15 0 P_____________ WP222020 13.8122 121.895 67 985 1 93 80 90 112 1006 160 5 14 292
2020302N17140 2020 39 WP MM GONI 2020-11-01 12:00:00 NR 14.1000 121.200 PROVISIONAL 0 0 O_____________ tcvitals WP222020 14.1000 121.200 60 990 0 60 55 100 90 1007 150 5 16 292
2020302N17140 2020 39 WP MM GONI 2020-11-01 15:00:00 NR 14.4230 120.328 PROVISIONAL 15 15 P_____________ WP222020 14.4230 120.328 57 991 0 85 62 80 108 1006 155 17 18 290
2020302N17140 2020 39 WP MM GONI 2020-11-01 18:00:00 NR 14.7000 119.500 PROVISIONAL 65 65 O_____________ tcvitals WP222020 14.7000 119.500 54 992 0 110 70 60 126 1006 160 30 14 286
2020302N17140 2020 39 WP MM GONI 2020-11-01 21:00:00 NR 14.8147 118.910 PROVISIONAL 126 126 P_____________ WP222020 14.8147 118.910 46 997 0 110 67 57 126 1007 185 30 10 282
2020302N17140 2020 39 WP MM GONI 2020-11-02 00:00:00 NR 14.9000 118.500 PROVISIONAL 160 160 O_____________ tcvitals WP222020 14.9000 118.500 39 1002 0 110 65 55 126 1009 210 30 7 297
2020302N17140 2020 39 WP MM GONI 2020-11-02 03:00:00 NR 15.1296 118.265 PROVISIONAL 174 174 P_____________ WP222020 15.1296 118.265 34 1003 0 1007 180 30 6 310
2020302N17140 2020 39 WP MM GONI 2020-11-02 06:00:00 NR 15.3000 118.000 PROVISIONAL 198 198 O_____________ tcvitals WP222020 15.3000 118.000 29 1004 -1 1006 150 30 8 277
2020302N17140 2020 39 WP MM GONI 2020-11-02 09:00:00 NR 15.2303 117.437 PROVISIONAL 262 262 P_____________ WP222020 15.2303 117.437 29 1003 -1 1006 150 30 12 260
2020302N17140 2020 39 WP MM GONI 2020-11-02 12:00:00 NR 15.1000 116.800 PROVISIONAL 326 326 O_____________ tcvitals WP222020 15.1000 116.800 29 1002 -1 1006 150 30 12 264
2020302N17140 2020 39 WP MM GONI 2020-11-02 15:00:00 NR 15.1075 116.240 PROVISIONAL 388 388 P_____________ WP222020 15.1075 116.240 32 1002 -1 1007 155 30 10 270
2020302N17140 2020 39 WP MM GONI 2020-11-02 18:00:00 NR 15.1000 115.800 PROVISIONAL 429 429 O_____________ tcvitals WP222020 15.1000 115.800 35 1003 0 6 6 6 55 1008 160 30 7 257
2020302N17140 2020 39 WP MM GONI 2020-11-02 21:00:00 NR 14.9573 115.547 PROVISIONAL 463 463 P_____________ WP222020 14.9573 115.547 35 1002 0 6 6 6 55 1008 121 30 5 232
2020302N17140 2020 39 WP MM GONI 2020-11-03 00:00:00 NR 14.8000 115.400 PROVISIONAL 480 480 O_____________ tcvitals WP222020 14.8000 115.400 35 1002 0 6 6 6 55 1008 82 30 4 231
2020302N17140 2020 39 WP MM GONI 2020-11-03 03:00:00 NR 14.7274 115.258 PROVISIONAL 493 493 P_____________ WP222020 14.7274 115.258 35 1004 0 20 23 67 1009 138 30 3 251
2020302N17140 2020 39 WP MM GONI 2020-11-03 06:00:00 NR 14.7000 115.100 PROVISIONAL 514 514 O_____________ tcvitals WP222020 14.7000 115.100 35 1006 0 35 40 80 1010 195 30 4 266
2020302N17140 2020 39 WP MM GONI 2020-11-03 09:00:00 NR 14.7000 114.858 PROVISIONAL 535 535 P_____________ WP222020 14.7000 114.858 35 1005 0 32 52 72 1009 185 30 5 270
2020302N17140 2020 39 WP MM GONI 2020-11-03 12:00:00 NR 14.7000 114.600 PROVISIONAL 566 557 O_____________ tcvitals WP222020 14.7000 114.600 35 1004 0 30 65 65 1009 175 30 4 265
2020302N17140 2020 39 WP MM GONI 2020-11-03 15:00:00 NR 14.6649 114.423 PROVISIONAL 557 534 P_____________ WP222020 14.6649 114.423 35 1004 0 25 52 62 1009 175 30 4 256
2020302N17140 2020 39 WP MM GONI 2020-11-03 18:00:00 NR 14.6000 114.200 PROVISIONAL 534 489 O_____________ tcvitals WP222020 14.6000 114.200 35 1004 0 20 40 60 1009 175 30 6 255
2020302N17140 2020 39 WP MM GONI 2020-11-03 21:00:00 NR 14.4927 113.777 PROVISIONAL 489 445 P_____________ WP222020 14.4927 113.777 35 1004 0 20 40 60 1009 175 30 8 256
2020302N17140 2020 39 WP MM GONI 2020-11-04 00:00:00 NR 14.4000 113.400 PROVISIONAL 445 435 O_____________ tcvitals WP222020 14.4000 113.400 35 1005 0 20 40 60 1009 175 30 4 257
2020302N17140 2020 39 WP MM GONI 2020-11-04 03:00:00 NR 14.3923 113.343 PROVISIONAL 435 435 P_____________ WP222020 14.3923 113.343 35 1003 0 52 40 72 1008 172 30 1 270
2020302N17140 2020 39 WP MM GONI 2020-11-04 06:00:00 NR 14.4000 113.300 PROVISIONAL 435 403 O_____________ tcvitals WP222020 14.4000 113.300 35 1002 0 85 40 85 1008 170 30 4 265
2020302N17140 2020 39 WP MM GONI 2020-11-04 09:00:00 NR 14.3577 112.950 PROVISIONAL 392 358 P_____________ WP222020 14.3577 112.950 35 1003 0 80 70 1008 172 30 7 262
2020302N17140 2020 39 WP MM GONI 2020-11-04 12:00:00 NR 14.3000 112.600 PROVISIONAL 358 346 O_____________ tcvitals WP222020 14.3000 112.600 35 1004 0 75 55 1009 175 30 4 254
2020302N17140 2020 39 WP MM GONI 2020-11-04 15:00:00 NR 14.2424 112.543 PROVISIONAL 346 346 P_____________ WP222020 14.2424 112.543 37 1002 0 75 60 1008 162 30 1 223
2020302N17140 2020 39 WP MM GONI 2020-11-04 18:00:00 NR 14.2000 112.500 PROVISIONAL 346 314 O_____________ tcvitals WP222020 14.2000 112.500 39 1000 0 75 45 55 65 1008 150 30 3 263
2020302N17140 2020 39 WP MM GONI 2020-11-04 21:00:00 NR 14.2076 112.230 PROVISIONAL 314 282 P_____________ WP222020 14.2076 112.230 39 1001 0 80 55 57 67 1009 160 30 6 270
2020302N17140 2020 39 WP MM GONI 2020-11-05 00:00:00 NR 14.2000 111.900 PROVISIONAL 282 249 O_____________ tcvitals WP222020 14.2000 111.900 39 1002 0 85 65 60 70 1010 170 30 6 260
2020302N17140 2020 39 WP MM GONI 2020-11-05 03:00:00 NR 14.1000 111.620 PROVISIONAL 249 227 P_____________ WP222020 14.1000 111.620 37 1002 0 77 62 75 1009 155 30 5 248
2020302N17140 2020 39 WP MM GONI 2020-11-05 06:00:00 NR 14.0000 111.400 PROVISIONAL 227 216 O_____________ tcvitals WP222020 14.0000 111.400 35 1002 0 70 65 80 1008 140 30 3 248
2020302N17140 2020 39 WP MM GONI 2020-11-05 09:00:00 NR 13.9848 111.330 PROVISIONAL 216 205 P_____________ WP222020 13.9848 111.330 32 1003 -1 1009 140 30 2 270
2020302N17140 2020 39 WP MM GONI 2020-11-05 12:00:00 NR 14.0000 111.200 PROVISIONAL 205 162 O_____________ tcvitals WP222020 14.0000 111.200 29 1005 -1 1010 140 30 5 273
2020302N17140 2020 39 WP MM GONI 2020-11-05 15:00:00 NR 14.0075 110.818 PROVISIONAL 162 108 P_____________ WP222020 14.0075 110.818 29 1005 -1 1010 135 30 9 270
2020302N17140 2020 39 WP MM GONI 2020-11-05 18:00:00 NR 14.0000 110.300 PROVISIONAL 108 53 O_____________ tcvitals WP222020 14.0000 110.300 29 1005 -1 1010 130 30 11 266
2020302N17140 2020 39 WP MM GONI 2020-11-05 21:00:00 NR 13.9277 109.727 PROVISIONAL 43 0 P_____________ WP222020 13.9277 109.727 29 1006 -1 1010 112 35 11 265
2020302N17140 2020 39 WP MM GONI 2020-11-06 00:00:00 NR 13.9000 109.200 PROVISIONAL 0 0 O_____________ tcvitals WP222020 13.9000 109.200 29 1007 -1 1011 95 40 9 275
2020302N17140 2020 39 WP MM GONI 2020-11-06 03:00:00 NR 14.0074 108.845 PROVISIONAL 0 0 P_____________ WP222020 14.0074 108.845 27 1008 -1 1011 95 40 7 297
2020302N17140 2020 39 WP MM GONI 2020-11-06 06:00:00 NR 14.2000 108.600 PROVISIONAL 0 O_____________ tcvitals WP222020 14.2000 108.600 25 1009 -1 1011 95 40 6 309

Digital Typhoon Data and Search

About IBTrACS Database

This database is a web-friendly format of International Best Track Archive for Climate Stewardship (IBTrACS), a global best track data archive curated by NOAA dating back to 1842.

Updated: 2021-10-19